sensor_id;sensor_type;location;lat;lon;timestamp;pressure;altitude;pressure_sealevel;temperature;humidity
69689;BME280;56932;38.402;-96.176;2023-04-30T00:01:51;96858.70;;;23.24;22.32
69689;BME280;56932;38.402;-96.176;2023-04-30T00:04:17;96860.37;;;22.70;22.73
69689;BME280;56932;38.402;-96.176;2023-04-30T00:06:42;96869.77;;;23.00;23.25
69689;BME280;56932;38.402;-96.176;2023-04-30T00:09:07;96869.19;;;22.79;23.57
69689;BME280;56932;38.402;-96.176;2023-04-30T00:11:33;96877.19;;;23.33;23.11
69689;BME280;56932;38.402;-96.176;2023-04-30T00:13:59;96878.27;;;23.51;23.01
69689;BME280;56932;38.402;-96.176;2023-04-30T00:16:24;96889.81;;;22.38;23.28
69689;BME280;56932;38.402;-96.176;2023-04-30T00:18:50;96891.23;;;22.80;23.73
69689;BME280;56932;38.402;-96.176;2023-04-30T00:21:15;96892.34;;;23.10;23.56
69689;BME280;56932;38.402;-96.176;2023-04-30T00:23:41;96897.69;;;23.00;23.63
69689;BME280;56932;38.402;-96.176;2023-04-30T00:26:06;96898.60;;;22.99;23.49
69689;BME280;56932;38.402;-96.176;2023-04-30T00:28:31;96908.42;;;22.74;23.48
69689;BME280;56932;38.402;-96.176;2023-04-30T00:30:57;96898.17;;;22.89;23.33
69689;BME280;56932;38.402;-96.176;2023-04-30T00:33:22;96913.25;;;22.96;23.45
69689;BME280;56932;38.402;-96.176;2023-04-30T00:35:48;96921.51;;;23.39;22.64
69689;BME280;56932;38.402;-96.176;2023-04-30T00:38:13;96923.36;;;22.89;23.62
69689;BME280;56932;38.402;-96.176;2023-04-30T00:40:40;96934.36;;;23.11;23.50
69689;BME280;56932;38.402;-96.176;2023-04-30T00:43:04;96938.20;;;22.57;23.95
69689;BME280;56932;38.402;-96.176;2023-04-30T00:45:30;96942.25;;;22.95;23.65
69689;BME280;56932;38.402;-96.176;2023-04-30T00:47:55;96952.98;;;23.12;23.74
69689;BME280;56932;38.402;-96.176;2023-04-30T00:50:21;96950.90;;;22.30;23.72
69689;BME280;56932;38.402;-96.176;2023-04-30T00:52:46;96971.55;;;22.91;23.60
69689;BME280;56932;38.402;-96.176;2023-04-30T00:55:12;96978.79;;;22.93;23.43
69689;BME280;56932;38.402;-96.176;2023-04-30T00:57:37;96992.66;;;23.32;22.96
69689;BME280;56932;38.402;-96.176;2023-04-30T01:00:03;96997.24;;;24.34;21.12
69689;BME280;56932;38.402;-96.176;2023-04-30T01:02:28;96998.48;;;22.76;22.65
69689;BME280;56932;38.402;-96.176;2023-04-30T01:04:54;97007.48;;;24.09;22.06
69689;BME280;56932;38.402;-96.176;2023-04-30T01:07:19;97019.42;;;23.55;21.67
69689;BME280;56932;38.402;-96.176;2023-04-30T01:09:44;97019.05;;;23.44;21.41
69689;BME280;56932;38.402;-96.176;2023-04-30T01:12:15;97023.76;;;23.47;21.71
69689;BME280;56932;38.402;-96.176;2023-04-30T01:14:43;97023.80;;;22.94;22.35
69689;BME280;56932;38.402;-96.176;2023-04-30T01:17:07;97038.95;;;23.34;22.11
69689;BME280;56932;38.402;-96.176;2023-04-30T01:19:35;97040.95;;;22.99;22.82
69689;BME280;56932;38.402;-96.176;2023-04-30T01:21:52;97040.14;;;23.00;22.49
69689;BME280;56932;38.402;-96.176;2023-04-30T01:24:31;97054.06;;;22.96;21.48
69689;BME280;56932;38.402;-96.176;2023-04-30T01:26:52;97055.57;;;21.87;22.60
69689;BME280;56932;38.402;-96.176;2023-04-30T01:29:08;97065.35;;;22.81;22.20
69689;BME280;56932;38.402;-96.176;2023-04-30T01:31:33;97069.12;;;23.48;21.77
69689;BME280;56932;38.402;-96.176;2023-04-30T01:33:58;97072.67;;;22.98;22.02
69689;BME280;56932;38.402;-96.176;2023-04-30T01:36:36;97083.36;;;22.57;22.23
69689;BME280;56932;38.402;-96.176;2023-04-30T01:38:59;97084.61;;;22.67;22.52
69689;BME280;56932;38.402;-96.176;2023-04-30T01:41:23;97089.11;;;22.89;22.70
69689;BME280;56932;38.402;-96.176;2023-04-30T01:43:48;97095.17;;;22.88;22.89
69689;BME280;56932;38.402;-96.176;2023-04-30T01:46:12;97101.81;;;23.11;22.78
69689;BME280;56932;38.402;-96.176;2023-04-30T01:48:45;97111.54;;;22.80;22.86
69689;BME280;56932;38.402;-96.176;2023-04-30T01:51:03;97109.66;;;22.57;23.19
69689;BME280;56932;38.402;-96.176;2023-04-30T01:53:27;97115.11;;;22.59;23.16
69689;BME280;56932;38.402;-96.176;2023-04-30T01:55:51;97113.88;;;23.49;21.96
69689;BME280;56932;38.402;-96.176;2023-04-30T01:58:14;97117.07;;;23.55;22.34
69689;BME280;56932;38.402;-96.176;2023-04-30T02:00:38;97114.99;;;22.46;23.13
69689;BME280;56932;38.402;-96.176;2023-04-30T02:03:04;97125.17;;;23.22;22.24
69689;BME280;56932;38.402;-96.176;2023-04-30T02:05:29;97124.58;;;22.86;22.67
69689;BME280;56932;38.402;-96.176;2023-04-30T02:07:58;97134.51;;;23.63;22.12
69689;BME280;56932;38.402;-96.176;2023-04-30T02:10:22;97141.51;;;21.42;23.17
69689;BME280;56932;38.402;-96.176;2023-04-30T02:12:46;97144.76;;;22.46;22.74
69689;BME280;56932;38.402;-96.176;2023-04-30T02:15:11;97148.54;;;22.97;22.77
69689;BME280;56932;38.402;-96.176;2023-04-30T02:17:37;97150.03;;;22.20;23.10
69689;BME280;56932;38.402;-96.176;2023-04-30T02:20:03;97161.18;;;22.79;22.91
69689;BME280;56932;38.402;-96.176;2023-04-30T02:22:28;97158.49;;;22.74;22.94
69689;BME280;56932;38.402;-96.176;2023-04-30T02:24:53;97164.58;;;22.83;22.93
69689;BME280;56932;38.402;-96.176;2023-04-30T02:27:19;97170.69;;;22.39;23.59
69689;BME280;56932;38.402;-96.176;2023-04-30T02:29:44;97170.67;;;23.14;23.21
69689;BME280;56932;38.402;-96.176;2023-04-30T02:32:09;97177.65;;;22.88;23.46
69689;BME280;56932;38.402;-96.176;2023-04-30T02:34:35;97179.01;;;22.01;23.78
69689;BME280;56932;38.402;-96.176;2023-04-30T02:37:00;97180.97;;;22.46;23.53
69689;BME280;56932;38.402;-96.176;2023-04-30T02:39:26;97176.26;;;22.77;23.62
69689;BME280;56932;38.402;-96.176;2023-04-30T02:41:51;97179.31;;;22.99;23.27
69689;BME280;56932;38.402;-96.176;2023-04-30T02:44:17;97177.72;;;22.40;23.43
69689;BME280;56932;38.402;-96.176;2023-04-30T02:46:42;97177.95;;;22.65;23.12
69689;BME280;56932;38.402;-96.176;2023-04-30T02:49:08;97176.80;;;22.67;23.37
69689;BME280;56932;38.402;-96.176;2023-04-30T02:51:33;97180.05;;;22.39;23.73
69689;BME280;56932;38.402;-96.176;2023-04-30T02:53:59;97180.42;;;22.48;23.68
69689;BME280;56932;38.402;-96.176;2023-04-30T02:56:24;97182.99;;;22.00;23.72
69689;BME280;56932;38.402;-96.176;2023-04-30T02:58:50;97184.58;;;22.69;23.89
69689;BME280;56932;38.402;-96.176;2023-04-30T03:01:15;97185.97;;;23.07;23.65
69689;BME280;56932;38.402;-96.176;2023-04-30T03:03:41;97186.44;;;23.10;23.74
69689;BME280;56932;38.402;-96.176;2023-04-30T03:06:06;97185.69;;;22.75;23.96
69689;BME280;56932;38.402;-96.176;2023-04-30T03:08:32;97183.31;;;22.04;23.99
69689;BME280;56932;38.402;-96.176;2023-04-30T03:10:57;97181.55;;;22.79;23.97
69689;BME280;56932;38.402;-96.176;2023-04-30T03:13:23;97179.31;;;22.77;24.09
69689;BME280;56932;38.402;-96.176;2023-04-30T03:15:48;97174.72;;;21.82;24.95
69689;BME280;56932;38.402;-96.176;2023-04-30T03:18:14;97172.77;;;21.96;25.08
69689;BME280;56932;38.402;-96.176;2023-04-30T03:20:39;97174.73;;;21.16;25.37
69689;BME280;56932;38.402;-96.176;2023-04-30T03:23:04;97171.74;;;21.50;25.53
69689;BME280;56932;38.402;-96.176;2023-04-30T03:25:30;97171.55;;;21.31;25.80
69689;BME280;56932;38.402;-96.176;2023-04-30T03:27:55;97171.03;;;21.19;26.44
69689;BME280;56932;38.402;-96.176;2023-04-30T03:30:21;97171.70;;;20.93;25.77
69689;BME280;56932;38.402;-96.176;2023-04-30T03:32:46;97172.70;;;21.12;26.09
69689;BME280;56932;38.402;-96.176;2023-04-30T03:35:12;97174.82;;;21.52;26.00
69689;BME280;56932;38.402;-96.176;2023-04-30T03:37:37;97176.28;;;21.28;26.23
69689;BME280;56932;38.402;-96.176;2023-04-30T03:40:03;97176.02;;;21.92;25.47
69689;BME280;56932;38.402;-96.176;2023-04-30T03:42:28;97175.41;;;20.55;26.26
69689;BME280;56932;38.402;-96.176;2023-04-30T03:44:54;97172.82;;;21.60;25.98
69689;BME280;56932;38.402;-96.176;2023-04-30T03:47:19;97170.84;;;21.29;26.05
69689;BME280;56932;38.402;-96.176;2023-04-30T03:49:45;97166.94;;;21.00;26.33
69689;BME280;56932;38.402;-96.176;2023-04-30T03:52:10;97170.14;;;21.28;26.34
69689;BME280;56932;38.402;-96.176;2023-04-30T03:54:36;97166.78;;;20.45;26.97
69689;BME280;56932;38.402;-96.176;2023-04-30T03:57:02;97164.93;;;20.52;27.41
69689;BME280;56932;38.402;-96.176;2023-04-30T03:59:27;97165.45;;;20.87;27.07
69689;BME280;56932;38.402;-96.176;2023-04-30T04:01:52;97159.27;;;20.80;26.89
69689;BME280;56932;38.402;-96.176;2023-04-30T04:04:18;97153.97;;;21.15;26.27
69689;BME280;56932;38.402;-96.176;2023-04-30T04:06:43;97152.94;;;20.45;26.99
69689;BME280;56932;38.402;-96.176;2023-04-30T04:09:09;97148.32;;;21.03;26.40
69689;BME280;56932;38.402;-96.176;2023-04-30T04:11:34;97142.08;;;21.07;26.46
69689;BME280;56932;38.402;-96.176;2023-04-30T04:14:00;97142.10;;;20.99;26.76
69689;BME280;56932;38.402;-96.176;2023-04-30T04:16:25;97137.89;;;20.10;27.33
69689;BME280;56932;38.402;-96.176;2023-04-30T04:18:51;97129.07;;;20.91;26.57
69689;BME280;56932;38.402;-96.176;2023-04-30T04:21:18;97130.88;;;21.13;26.41
69689;BME280;56932;38.402;-96.176;2023-04-30T04:23:42;97127.33;;;20.70;27.26
69689;BME280;56932;38.402;-96.176;2023-04-30T04:26:08;97121.81;;;20.92;26.60
69689;BME280;56932;38.402;-96.176;2023-04-30T04:28:33;97117.41;;;20.47;27.29
69689;BME280;56932;38.402;-96.176;2023-04-30T04:30:58;97113.73;;;20.57;26.97
69689;BME280;56932;38.402;-96.176;2023-04-30T04:33:24;97113.97;;;20.96;26.54
69689;BME280;56932;38.402;-96.176;2023-04-30T04:35:49;97109.70;;;20.91;27.13
69689;BME280;56932;38.402;-96.176;2023-04-30T04:38:15;97106.48;;;20.09;27.94
69689;BME280;56932;38.402;-96.176;2023-04-30T04:40:44;97101.39;;;20.08;27.71
69689;BME280;56932;38.402;-96.176;2023-04-30T04:43:06;97102.68;;;20.47;27.53
69689;BME280;56932;38.402;-96.176;2023-04-30T04:45:32;97099.61;;;20.72;26.80
69689;BME280;56932;38.402;-96.176;2023-04-30T04:47:57;97099.84;;;20.73;27.12
69689;BME280;56932;38.402;-96.176;2023-04-30T04:50:23;97100.70;;;20.12;26.90
69689;BME280;56932;38.402;-96.176;2023-04-30T04:52:48;97099.70;;;20.95;27.09
69689;BME280;56932;38.402;-96.176;2023-04-30T04:55:14;97093.97;;;20.82;26.98
69689;BME280;56932;38.402;-96.176;2023-04-30T04:57:39;97096.95;;;20.21;27.30
69689;BME280;56932;38.402;-96.176;2023-04-30T05:00:06;97094.16;;;20.72;27.05
69689;BME280;56932;38.402;-96.176;2023-04-30T05:02:30;97091.85;;;20.06;27.43
69689;BME280;56932;38.402;-96.176;2023-04-30T05:04:55;97095.60;;;20.40;27.40
69689;BME280;56932;38.402;-96.176;2023-04-30T05:07:21;97095.81;;;21.07;26.95
69689;BME280;56932;38.402;-96.176;2023-04-30T05:09:47;97096.39;;;20.80;27.19
69689;BME280;56932;38.402;-96.176;2023-04-30T05:12:12;97096.77;;;20.56;27.46
69689;BME280;56932;38.402;-96.176;2023-04-30T05:14:38;97090.75;;;20.32;27.74
69689;BME280;56932;38.402;-96.176;2023-04-30T05:17:03;97094.16;;;20.31;27.76
69689;BME280;56932;38.402;-96.176;2023-04-30T05:19:29;97091.77;;;20.50;27.54
69689;BME280;56932;38.402;-96.176;2023-04-30T05:21:54;97087.08;;;20.73;27.10
69689;BME280;56932;38.402;-96.176;2023-04-30T05:24:20;97089.43;;;19.73;27.87
69689;BME280;56932;38.402;-96.176;2023-04-30T05:26:45;97087.81;;;20.99;26.79
69689;BME280;56932;38.402;-96.176;2023-04-30T05:29:11;97083.86;;;20.16;27.81
69689;BME280;56932;38.402;-96.176;2023-04-30T05:31:36;97079.29;;;20.36;27.15
69689;BME280;56932;38.402;-96.176;2023-04-30T05:34:02;97079.72;;;20.07;27.92
69689;BME280;56932;38.402;-96.176;2023-04-30T05:36:27;97077.39;;;20.17;26.92
69689;BME280;56932;38.402;-96.176;2023-04-30T05:38:53;97079.50;;;20.46;27.25
69689;BME280;56932;38.402;-96.176;2023-04-30T05:41:18;97082.00;;;20.56;27.42
69689;BME280;56932;38.402;-96.176;2023-04-30T05:43:44;97084.85;;;20.38;27.58
69689;BME280;56932;38.402;-96.176;2023-04-30T05:46:09;97084.61;;;20.44;27.59
69689;BME280;56932;38.402;-96.176;2023-04-30T05:48:34;97080.66;;;19.78;27.99
69689;BME280;56932;38.402;-96.176;2023-04-30T05:51:00;97083.20;;;19.80;27.95
69689;BME280;56932;38.402;-96.176;2023-04-30T05:53:26;97084.03;;;20.86;27.14
69689;BME280;56932;38.402;-96.176;2023-04-30T05:55:51;97083.59;;;20.79;27.24
69689;BME280;56932;38.402;-96.176;2023-04-30T05:58:17;97085.05;;;19.89;27.63
69689;BME280;56932;38.402;-96.176;2023-04-30T06:00:42;97083.72;;;20.39;27.06
69689;BME280;56932;38.402;-96.176;2023-04-30T06:03:08;97089.16;;;19.99;27.74
69689;BME280;56932;38.402;-96.176;2023-04-30T06:05:33;97081.00;;;21.08;26.89
69689;BME280;56932;38.402;-96.176;2023-04-30T06:08:01;97082.99;;;19.42;27.13
69689;BME280;56932;38.402;-96.176;2023-04-30T06:10:25;97084.23;;;20.28;26.65
69689;BME280;56932;38.402;-96.176;2023-04-30T06:12:50;97082.88;;;20.29;27.43
69689;BME280;56932;38.402;-96.176;2023-04-30T06:15:16;97080.51;;;20.27;27.72
69689;BME280;56932;38.402;-96.176;2023-04-30T06:17:41;97072.94;;;19.97;28.03
69689;BME280;56932;38.402;-96.176;2023-04-30T06:20:08;97072.97;;;20.09;27.83
69689;BME280;56932;38.402;-96.176;2023-04-30T06:22:33;97072.61;;;20.10;27.57
69689;BME280;56932;38.402;-96.176;2023-04-30T06:24:58;97069.66;;;20.90;27.04
69689;BME280;56932;38.402;-96.176;2023-04-30T06:27:24;97067.91;;;20.28;27.62
69689;BME280;56932;38.402;-96.176;2023-04-30T06:29:49;97066.15;;;20.19;27.75
69689;BME280;56932;38.402;-96.176;2023-04-30T06:32:15;97063.78;;;20.87;27.11
69689;BME280;56932;38.402;-96.176;2023-04-30T06:34:40;97062.88;;;20.59;27.32
69689;BME280;56932;38.402;-96.176;2023-04-30T06:37:05;97064.63;;;20.19;27.75
69689;BME280;56932;38.402;-96.176;2023-04-30T06:39:31;97065.68;;;20.03;28.12
69689;BME280;56932;38.402;-96.176;2023-04-30T06:41:56;97065.75;;;20.19;27.68
69689;BME280;56932;38.402;-96.176;2023-04-30T06:44:22;97064.63;;;19.07;28.09
69689;BME280;56932;38.402;-96.176;2023-04-30T06:46:47;97069.30;;;19.36;28.54
69689;BME280;56932;38.402;-96.176;2023-04-30T06:49:13;97065.57;;;20.72;27.38
69689;BME280;56932;38.402;-96.176;2023-04-30T06:51:40;97064.98;;;20.35;27.46
69689;BME280;56932;38.402;-96.176;2023-04-30T06:54:04;97068.19;;;20.01;28.27
69689;BME280;56932;38.402;-96.176;2023-04-30T06:56:30;97070.60;;;19.99;27.56
69689;BME280;56932;38.402;-96.176;2023-04-30T06:58:55;97071.76;;;20.12;28.15
69689;BME280;56932;38.402;-96.176;2023-04-30T07:01:21;97073.68;;;20.64;27.44
69689;BME280;56932;38.402;-96.176;2023-04-30T07:03:46;97070.67;;;19.18;28.63
69689;BME280;56932;38.402;-96.176;2023-04-30T07:06:12;97069.34;;;20.07;27.94
69689;BME280;56932;38.402;-96.176;2023-04-30T07:08:37;97073.27;;;19.65;28.10
69689;BME280;56932;38.402;-96.176;2023-04-30T07:11:03;97073.22;;;20.10;27.68
69689;BME280;56932;38.402;-96.176;2023-04-30T07:13:28;97066.98;;;19.90;28.09
69689;BME280;56932;38.402;-96.176;2023-04-30T07:15:54;97070.07;;;19.95;27.77
69689;BME280;56932;38.402;-96.176;2023-04-30T07:18:20;97067.79;;;20.48;26.78
69689;BME280;56932;38.402;-96.176;2023-04-30T07:20:45;97070.96;;;20.19;27.71
69689;BME280;56932;38.402;-96.176;2023-04-30T07:23:10;97069.77;;;21.02;26.65
69689;BME280;56932;38.402;-96.176;2023-04-30T07:25:36;97069.36;;;20.34;27.34
69689;BME280;56932;38.402;-96.176;2023-04-30T07:28:01;97065.67;;;20.34;27.31
69689;BME280;56932;38.402;-96.176;2023-04-30T07:30:27;97063.50;;;19.79;27.35
69689;BME280;56932;38.402;-96.176;2023-04-30T07:32:52;97058.95;;;20.55;27.12
69689;BME280;56932;38.402;-96.176;2023-04-30T07:35:18;97057.63;;;20.22;27.40
69689;BME280;56932;38.402;-96.176;2023-04-30T07:37:43;97056.10;;;19.67;27.92
69689;BME280;56932;38.402;-96.176;2023-04-30T07:40:10;97057.07;;;20.62;27.29
69689;BME280;56932;38.402;-96.176;2023-04-30T07:42:35;97057.09;;;19.96;27.63
69689;BME280;56932;38.402;-96.176;2023-04-30T07:45:00;97052.87;;;20.54;27.09
69689;BME280;56932;38.402;-96.176;2023-04-30T07:47:26;97051.37;;;20.34;27.47
69689;BME280;56932;38.402;-96.176;2023-04-30T07:49:51;97046.33;;;21.09;26.54
69689;BME280;56932;38.402;-96.176;2023-04-30T07:52:17;97043.19;;;19.76;27.61
69689;BME280;56932;38.402;-96.176;2023-04-30T07:54:42;97043.56;;;20.10;27.47
69689;BME280;56932;38.402;-96.176;2023-04-30T07:57:08;97045.18;;;20.19;27.42
69689;BME280;56932;38.402;-96.176;2023-04-30T07:59:33;97039.06;;;21.09;26.41
69689;BME280;56932;38.402;-96.176;2023-04-30T08:01:59;97035.40;;;20.53;27.25
69689;BME280;56932;38.402;-96.176;2023-04-30T08:04:25;97032.18;;;19.54;27.51
69689;BME280;56932;38.402;-96.176;2023-04-30T08:06:51;97031.34;;;19.89;27.66
69689;BME280;56932;38.402;-96.176;2023-04-30T08:09:16;97030.27;;;19.32;28.50
69689;BME280;56932;38.402;-96.176;2023-04-30T08:11:41;97029.85;;;19.39;28.76
69689;BME280;56932;38.402;-96.176;2023-04-30T08:14:07;97029.11;;;20.27;27.36
69689;BME280;56932;38.402;-96.176;2023-04-30T08:16:32;97034.38;;;19.69;27.91
69689;BME280;56932;38.402;-96.176;2023-04-30T08:18:58;97033.72;;;19.14;28.72
69689;BME280;56932;38.402;-96.176;2023-04-30T08:21:23;97038.09;;;19.48;28.63
69689;BME280;56932;38.402;-96.176;2023-04-30T08:23:49;97045.51;;;20.27;27.49
69689;BME280;56932;38.402;-96.176;2023-04-30T08:26:15;97042.60;;;20.20;27.34
69689;BME280;56932;38.402;-96.176;2023-04-30T08:28:40;97052.05;;;19.11;28.23
69689;BME280;56932;38.402;-96.176;2023-04-30T08:31:06;97062.78;;;19.21;28.34
69689;BME280;56932;38.402;-96.176;2023-04-30T08:33:31;97063.17;;;19.36;28.36
69689;BME280;56932;38.402;-96.176;2023-04-30T08:35:57;97069.60;;;19.96;27.51
69689;BME280;56932;38.402;-96.176;2023-04-30T08:38:23;97068.34;;;19.97;26.98
69689;BME280;56932;38.402;-96.176;2023-04-30T08:40:59;97078.19;;;18.96;28.98
69689;BME280;56932;38.402;-96.176;2023-04-30T08:43:14;97078.75;;;19.38;28.59
69689;BME280;56932;38.402;-96.176;2023-04-30T08:45:39;97072.92;;;19.30;28.39
69689;BME280;56932;38.402;-96.176;2023-04-30T08:48:05;97075.44;;;20.46;27.20
69689;BME280;56932;38.402;-96.176;2023-04-30T08:50:30;97078.45;;;19.61;27.28
69689;BME280;56932;38.402;-96.176;2023-04-30T08:52:56;97081.59;;;19.91;27.66
69689;BME280;56932;38.402;-96.176;2023-04-30T08:55:21;97080.68;;;19.29;28.59
69689;BME280;56932;38.402;-96.176;2023-04-30T08:57:46;97087.98;;;19.62;28.21
69689;BME280;56932;38.402;-96.176;2023-04-30T09:00:13;97093.66;;;19.99;27.89
69689;BME280;56932;38.402;-96.176;2023-04-30T09:02:39;97101.02;;;19.80;27.81
69689;BME280;56932;38.402;-96.176;2023-04-30T09:05:07;97103.25;;;19.29;28.36
69689;BME280;56932;38.402;-96.176;2023-04-30T09:07:31;97107.92;;;20.31;27.66
69689;BME280;56932;38.402;-96.176;2023-04-30T09:09:54;97107.61;;;19.50;28.09
69689;BME280;56932;38.402;-96.176;2023-04-30T09:12:20;97112.16;;;19.15;28.26
69689;BME280;56932;38.402;-96.176;2023-04-30T09:14:57;97116.64;;;19.70;27.88
69689;BME280;56932;38.402;-96.176;2023-04-30T09:17:20;97119.37;;;19.98;27.60
69689;BME280;56932;38.402;-96.176;2023-04-30T09:19:36;97128.55;;;19.45;28.43
69689;BME280;56932;38.402;-96.176;2023-04-30T09:24:44;97129.16;;;18.86;27.99
69689;BME280;56932;38.402;-96.176;2023-04-30T09:26:53;97129.02;;;20.16;27.14
69689;BME280;56932;38.402;-96.176;2023-04-30T09:29:18;97123.89;;;20.30;27.01
69689;BME280;56932;38.402;-96.176;2023-04-30T09:31:45;97122.66;;;20.33;27.15
69689;BME280;56932;38.402;-96.176;2023-04-30T09:34:09;97128.46;;;19.99;27.24
69689;BME280;56932;38.402;-96.176;2023-04-30T09:36:35;97133.12;;;19.24;28.00
69689;BME280;56932;38.402;-96.176;2023-04-30T09:39:05;97143.09;;;20.23;27.23
69689;BME280;56932;38.402;-96.176;2023-04-30T09:41:27;97154.78;;;19.82;27.87
69689;BME280;56932;38.402;-96.176;2023-04-30T09:43:51;97164.56;;;19.63;28.04
69689;BME280;56932;38.402;-96.176;2023-04-30T09:46:19;97169.90;;;19.34;28.02
69689;BME280;56932;38.402;-96.176;2023-04-30T09:48:44;97166.52;;;18.69;28.70
69689;BME280;56932;38.402;-96.176;2023-04-30T09:51:08;97172.68;;;19.93;27.38
69689;BME280;56932;38.402;-96.176;2023-04-30T09:53:36;97178.55;;;19.82;27.75
69689;BME280;56932;38.402;-96.176;2023-04-30T09:56:02;97175.65;;;19.70;27.81
69689;BME280;56932;38.402;-96.176;2023-04-30T09:58:27;97171.25;;;18.55;27.96
69689;BME280;56932;38.402;-96.176;2023-04-30T10:00:50;97170.59;;;18.65;28.61
69689;BME280;56932;38.402;-96.176;2023-04-30T10:03:15;97173.03;;;19.02;28.51
69689;BME280;56932;38.402;-96.176;2023-04-30T10:05:42;97176.50;;;19.51;27.92
69689;BME280;56932;38.402;-96.176;2023-04-30T10:08:09;97178.55;;;19.07;28.40
69689;BME280;56932;38.402;-96.176;2023-04-30T10:10:32;97182.76;;;18.72;27.45
69689;BME280;56932;38.402;-96.176;2023-04-30T10:13:02;97181.12;;;20.04;27.07
69689;BME280;56932;38.402;-96.176;2023-04-30T10:15:25;97188.64;;;19.38;27.99
69689;BME280;56932;38.402;-96.176;2023-04-30T10:17:56;97187.70;;;20.00;27.43
69689;BME280;56932;38.402;-96.176;2023-04-30T10:20:15;97193.42;;;19.46;27.63
69689;BME280;56932;38.402;-96.176;2023-04-30T10:22:39;97201.71;;;19.05;27.77
69689;BME280;56932;38.402;-96.176;2023-04-30T10:25:06;97209.09;;;19.54;27.52
69689;BME280;56932;38.402;-96.176;2023-04-30T10:27:31;97212.20;;;19.27;28.06
69689;BME280;56932;38.402;-96.176;2023-04-30T10:29:56;97207.22;;;19.94;27.13
69689;BME280;56932;38.402;-96.176;2023-04-30T10:32:22;97214.24;;;19.18;27.14
69689;BME280;56932;38.402;-96.176;2023-04-30T10:34:52;97216.77;;;19.61;27.42
69689;BME280;56932;38.402;-96.176;2023-04-30T10:37:17;97214.43;;;19.17;28.14
69689;BME280;56932;38.402;-96.176;2023-04-30T10:39:38;97214.83;;;19.38;27.89
69689;BME280;56932;38.402;-96.176;2023-04-30T10:42:05;97215.29;;;19.55;27.70
69689;BME280;56932;38.402;-96.176;2023-04-30T10:44:32;97218.74;;;18.06;28.18
69689;BME280;56932;38.402;-96.176;2023-04-30T10:46:58;97223.53;;;18.83;28.19
69689;BME280;56932;38.402;-96.176;2023-04-30T10:49:24;97220.94;;;19.51;27.71
69689;BME280;56932;38.402;-96.176;2023-04-30T10:51:48;97224.49;;;19.60;27.65
69689;BME280;56932;38.402;-96.176;2023-04-30T10:54:11;97227.98;;;18.23;28.95
69689;BME280;56932;38.402;-96.176;2023-04-30T10:56:36;97228.23;;;19.11;27.62
69689;BME280;56932;38.402;-96.176;2023-04-30T10:59:02;97232.56;;;19.30;27.87
69689;BME280;56932;38.402;-96.176;2023-04-30T11:01:28;97229.09;;;18.81;28.40
69689;BME280;56932;38.402;-96.176;2023-04-30T11:06:21;97229.32;;;19.05;27.84
69689;BME280;56932;38.402;-96.176;2023-04-30T11:08:45;97228.92;;;18.74;27.98
69689;BME280;56932;38.402;-96.176;2023-04-30T11:11:10;97231.55;;;18.49;28.65
69689;BME280;56932;38.402;-96.176;2023-04-30T11:13:39;97236.57;;;17.96;29.22
69689;BME280;56932;38.402;-96.176;2023-04-30T11:16:02;97242.95;;;19.00;28.63
69689;BME280;56932;38.402;-96.176;2023-04-30T11:18:27;97248.51;;;18.45;28.00
69689;BME280;56932;38.402;-96.176;2023-04-30T11:20:51;97252.12;;;19.14;27.98
69689;BME280;56932;38.402;-96.176;2023-04-30T11:23:22;97258.58;;;19.15;28.03
69689;BME280;56932;38.402;-96.176;2023-04-30T11:25:44;97258.25;;;19.18;28.19
69689;BME280;56932;38.402;-96.176;2023-04-30T11:28:13;97261.36;;;19.03;28.14
69689;BME280;56932;38.402;-96.176;2023-04-30T11:30:34;97265.84;;;18.40;28.51
69689;BME280;56932;38.402;-96.176;2023-04-30T11:33:00;97266.47;;;19.32;27.83
69689;BME280;56932;38.402;-96.176;2023-04-30T11:35:25;97264.24;;;19.41;27.73
69689;BME280;56932;38.402;-96.176;2023-04-30T11:37:54;97264.64;;;18.41;28.74
69689;BME280;56932;38.402;-96.176;2023-04-30T11:40:16;97269.93;;;19.69;27.40
69689;BME280;56932;38.402;-96.176;2023-04-30T11:42:42;97267.88;;;17.86;28.78
69689;BME280;56932;38.402;-96.176;2023-04-30T11:45:08;97273.96;;;18.76;28.43
69689;BME280;56932;38.402;-96.176;2023-04-30T11:47:39;97274.99;;;19.12;28.06
69689;BME280;56932;38.402;-96.176;2023-04-30T11:49:58;97275.74;;;18.99;28.18
69689;BME280;56932;38.402;-96.176;2023-04-30T11:52:25;97277.78;;;18.86;27.77
69689;BME280;56932;38.402;-96.176;2023-04-30T11:54:49;97282.43;;;18.85;28.24
69689;BME280;56932;38.402;-96.176;2023-04-30T11:57:14;97278.57;;;18.92;28.29
69689;BME280;56932;38.402;-96.176;2023-04-30T11:59:40;97279.92;;;19.09;28.25
69689;BME280;56932;38.402;-96.176;2023-04-30T12:02:06;97283.87;;;19.28;27.89
69689;BME280;56932;38.402;-96.176;2023-04-30T12:04:31;97288.50;;;18.23;28.38
69689;BME280;56932;38.402;-96.176;2023-04-30T12:06:57;97287.40;;;18.88;27.93
69689;BME280;56932;38.402;-96.176;2023-04-30T12:09:22;97288.40;;;19.04;27.77
69689;BME280;56932;38.402;-96.176;2023-04-30T12:11:48;97296.36;;;19.10;28.27
69689;BME280;56932;38.402;-96.176;2023-04-30T12:14:14;97298.89;;;19.13;28.25
69689;BME280;56932;38.402;-96.176;2023-04-30T12:16:41;97308.54;;;18.55;28.29
69689;BME280;56932;38.402;-96.176;2023-04-30T12:19:05;97315.07;;;19.22;27.93
69689;BME280;56932;38.402;-96.176;2023-04-30T12:21:30;97316.72;;;18.62;28.97
69689;BME280;56932;38.402;-96.176;2023-04-30T12:23:55;97319.90;;;19.12;28.05
69689;BME280;56932;38.402;-96.176;2023-04-30T12:26:22;97318.81;;;17.85;28.80
69689;BME280;56932;38.402;-96.176;2023-04-30T12:28:47;97322.03;;;18.61;28.48
69689;BME280;56932;38.402;-96.176;2023-04-30T12:31:12;97325.41;;;18.53;28.53
69689;BME280;56932;38.402;-96.176;2023-04-30T12:33:37;97323.70;;;18.36;28.76
69689;BME280;56932;38.402;-96.176;2023-04-30T12:36:03;97329.10;;;18.55;28.57